Mayer, Minnesota
Current Conditions -  °F | °C
As of 9:33 AM on Thursday 23 Oct 2014 (Local Time) from KGYL Reporting Station
Moderate Fog Moderate Fog  
Wind Chill: 52°   Ceiling: 200
Heat Index: 52°   Visibility: 0.25mi
Dew Point: 52°   Wind: 0mph
Humidity: 100%   Direction: NA
Pressure: 30"   Gusts: NA
Location:  44.88°N, 93.89°W
Report Text: KGYL 231433Z AUTO 00000KT 1/4SM FG OVC002 11/11 A3000 RMK AO2 T01090109
Loading
Personal Weather Stations






























Interactive Weather Map
Tropical Storm Tracking
New forecast layout! Learn more

10-Day Weather Forecast

Advertisements
Track Severe Weather on mobile